Time;durP1;ratioP1;P1;durP2;ratioP2;P2;SDS_P1;SDS_P2;PMS_P1;PMS_P2;Temp;Humidity;BMP_temperature;BMP_pressure;BME280_temperature;BME280_humidity;BME280_pressure;Samples;Min_cycle;Max_cycle;Signal;HPM_P1;HPM_P2
2023/01/24 00:00:49;;;;;;;21.23;15.57;;;3.50;99.90;;;;;;5108196;28;20761;-79
2023/01/24 00:03:15;;;;;;;21.83;15.30;;;3.50;99.90;;;;;;5109295;28;20412;-79
2023/01/24 00:05:43;;;;;;;20.33;14.88;;;3.50;99.90;;;;;;5095135;28;20770;-79
2023/01/24 00:08:12;;;;;;;21.50;15.40;;;3.50;99.90;;;;;;5091209;28;20415;-79
2023/01/24 00:10:37;;;;;;;20.92;14.93;;;3.50;99.90;;;;;;5107710;28;20400;-79
2023/01/24 00:13:04;;;;;;;23.13;15.55;;;3.40;99.90;;;;;;5109028;28;20404;-79
2023/01/24 00:15:29;;;;;;;22.30;15.40;;;3.40;99.90;;;;;;5107866;28;20412;-79
2023/01/24 00:17:55;;;;;;;21.73;15.45;;;3.40;99.90;;;;;;5091129;28;20855;-79
2023/01/24 00:20:21;;;;;;;22.80;15.60;;;3.40;99.90;;;;;;5073436;28;20417;-79
2023/01/24 00:22:46;;;;;;;21.73;15.40;;;3.40;99.90;;;;;;5089820;28;20436;-79
2023/01/24 00:25:12;;;;;;;21.67;15.80;;;3.40;99.90;;;;;;5088274;28;20429;-79
2023/01/24 00:27:38;;;;;;;23.35;16.30;;;3.40;99.90;;;;;;5088729;28;20413;-79
2023/01/24 00:30:05;;;;;;;21.03;15.60;;;3.40;99.90;;;;;;5088191;28;20603;-79
2023/01/24 00:32:31;;;;;;;22.77;16.20;;;3.40;99.90;;;;;;5071356;28;20458;-79
2023/01/24 00:34:57;;;;;;;23.70;16.67;;;3.40;99.90;;;;;;5087685;28;20494;-80
2023/01/24 00:37:23;;;;;;;23.33;16.27;;;3.40;99.90;;;;;;5088049;28;20426;-79
2023/01/24 00:39:49;;;;;;;24.25;16.08;;;3.40;99.90;;;;;;5089562;28;20408;-79
2023/01/24 00:42:15;;;;;;;23.67;16.45;;;3.40;99.90;;;;;;5088093;28;20410;-78
2023/01/24 00:44:40;;;;;;;23.57;16.23;;;3.40;99.90;;;;;;5089574;28;20886;-79
2023/01/24 00:47:06;;;;;;;23.47;16.40;;;3.40;99.90;;;;;;5089120;28;20481;-79
2023/01/24 00:49:31;;;;;;;25.25;16.80;;;3.40;99.90;;;;;;5088067;28;20478;-79
2023/01/24 00:51:57;;;;;;;23.57;17.00;;;3.40;99.90;;;;;;5087851;28;20400;-79
2023/01/24 00:54:23;;;;;;;22.80;16.45;;;3.40;99.90;;;;;;5088239;28;20416;-79
2023/01/24 00:56:48;;;;;;;23.87;17.00;;;3.40;99.90;;;;;;5070797;28;20408;-79
2023/01/24 00:59:14;;;;;;;25.03;16.77;;;3.40;99.90;;;;;;5070157;28;20491;-79
2023/01/24 01:01:40;;;;;;;24.63;16.70;;;3.40;99.90;;;;;;5087983;28;21124;-79
2023/01/24 01:04:05;;;;;;;24.83;17.03;;;3.40;99.90;;;;;;5089444;28;20457;-79
2023/01/24 01:06:31;;;;;;;23.42;17.00;;;3.40;99.90;;;;;;5087331;28;20490;-79
2023/01/24 01:08:56;;;;;;;24.85;17.80;;;3.40;99.90;;;;;;5087810;28;20404;-79
2023/01/24 01:11:22;;;;;;;27.17;16.77;;;3.40;99.90;;;;;;5087354;28;20394;-79
2023/01/24 01:13:48;;;;;;;24.77;16.73;;;3.40;99.90;;;;;;5070443;28;20402;-79
2023/01/24 01:16:17;;;;;;;23.65;17.25;;;3.40;99.90;;;;;;5087902;28;20759;-79
2023/01/24 01:18:43;;;;;;;25.27;17.33;;;3.40;99.90;;;;;;5086842;28;20430;-79
2023/01/24 01:21:12;;;;;;;25.90;17.47;;;3.40;99.90;;;;;;5087312;28;20401;-79
2023/01/24 01:23:37;;;;;;;24.70;17.52;;;3.40;99.90;;;;;;5067982;28;20402;-79
2023/01/24 01:26:06;;;;;;;27.92;18.92;;;3.40;99.90;;;;;;5089968;28;20414;-79
2023/01/24 01:28:32;;;;;;;26.77;17.38;;;3.40;99.90;;;;;;5090983;28;20486;-79
2023/01/24 01:30:58;;;;;;;24.30;17.50;;;3.40;99.90;;;;;;5096969;28;20918;-79
2023/01/24 01:33:24;;;;;;;26.40;18.33;;;3.40;99.90;;;;;;5088170;28;20435;-79
2023/01/24 01:35:51;;;;;;;26.70;18.25;;;3.40;99.90;;;;;;5099311;28;20471;-79
2023/01/24 01:38:18;;;;;;;27.33;18.02;;;3.50;99.90;;;;;;5105049;28;20431;-79
2023/01/24 01:40:43;;;;;;;28.07;18.30;;;3.40;99.90;;;;;;5084278;28;20406;-79
2023/01/24 01:43:15;;;;;;;29.67;18.40;;;3.50;99.90;;;;;;5086801;28;20447;-79
2023/01/24 01:45:49;;;;;;;29.05;18.80;;;3.50;99.90;;;;;;5068969;28;20920;-79
2023/01/24 01:48:35;;;;;;;30.20;18.88;;;3.50;99.90;;;;;;5104814;28;20405;-79
2023/01/24 01:51:19;;;;;;;29.90;19.33;;;3.50;99.90;;;;;;5074750;28;20418;-79
2023/01/24 01:53:53;;;;;;;29.05;18.75;;;3.50;99.90;;;;;;5088583;28;20483;-79
2023/01/24 01:56:28;;;;;;;31.30;20.45;;;3.50;99.90;;;;;;5105023;28;20905;-79
2023/01/24 01:58:57;;;;;;;29.92;19.20;;;3.50;99.90;;;;;;5081446;28;20505;-79
2023/01/24 02:01:23;;;;;;;29.63;20.30;;;3.50;99.90;;;;;;5087111;28;20409;-78
2023/01/24 02:04:02;;;;;;;29.23;19.90;;;3.40;99.90;;;;;;5087656;28;20401;-79
2023/01/24 02:06:41;;;;;;;28.75;19.42;;;3.50;99.90;;;;;;5073968;28;20418;-79
2023/01/24 02:09:09;;;;;;;32.93;21.03;;;3.50;99.90;;;;;;5104817;28;20479;-79
2023/01/24 02:11:39;;;;;;;30.75;19.77;;;3.50;99.90;;;;;;5091650;28;20465;-79
2023/01/24 02:16:52;;;;;;;31.00;20.58;;;3.50;99.90;;;;;;5105472;28;20423;-79
2023/01/24 02:19:30;;;;;;;30.48;20.77;;;3.50;99.90;;;;;;5087084;28;20424;-79
2023/01/24 02:22:02;;;;;;;31.48;20.70;;;3.50;99.90;;;;;;5105825;28;20408;-79
2023/01/24 02:24:36;;;;;;;32.35;20.60;;;3.50;99.90;;;;;;5103349;28;20487;-79
2023/01/24 02:27:01;;;;;;;32.27;21.70;;;3.50;99.90;;;;;;5094422;28;20414;-79
2023/01/24 02:29:27;;;;;;;29.67;19.83;;;3.50;99.90;;;;;;5086390;28;20493;-79
2023/01/24 02:31:59;;;;;;;29.52;19.45;;;3.50;99.90;;;;;;5086284;28;20398;-79
2023/01/24 02:34:25;;;;;;;32.27;20.87;;;3.50;99.90;;;;;;5073511;28;20412;-79
2023/01/24 02:37:04;;;;;;;29.80;19.98;;;3.50;99.90;;;;;;5103467;28;20443;-79
2023/01/24 02:39:35;;;;;;;30.98;20.48;;;3.50;99.90;;;;;;5075095;28;20414;-79
2023/01/24 02:42:10;;;;;;;31.58;20.63;;;3.50;99.90;;;;;;5086494;28;20405;-79
2023/01/24 02:44:53;;;;;;;30.35;20.40;;;3.50;99.90;;;;;;5104361;28;20404;-79
2023/01/24 02:47:18;;;;;;;29.17;19.88;;;3.50;99.90;;;;;;5101859;28;20401;-79
2023/01/24 02:49:44;;;;;;;30.03;20.57;;;3.50;99.90;;;;;;5102746;28;20758;-79
2023/01/24 02:54:54;;;;;;;30.73;20.37;;;3.50;99.90;;;;;;5101926;28;20456;-79
2023/01/24 03:00:11;;;;;;;31.52;20.95;;;3.50;99.90;;;;;;5077684;28;20412;-79
2023/01/24 03:02:36;;;;;;;32.13;21.40;;;3.50;99.90;;;;;;5090193;28;20406;-79
2023/01/24 03:05:02;;;;;;;32.13;20.63;;;3.50;99.90;;;;;;5090605;28;20406;-79
2023/01/24 03:07:41;;;;;;;30.35;20.05;;;3.50;99.90;;;;;;5090363;28;20398;-79
2023/01/24 03:10:08;;;;;;;29.60;18.88;;;3.50;99.90;;;;;;5086424;28;20447;-78
2023/01/24 03:34:45;;;;;;;35.72;24.85;;;3.50;99.90;;;;;;5089508;28;20414;-79
2023/01/24 03:37:11;;;;;;;35.75;25.55;;;3.50;99.90;;;;;;5089068;28;20775;-79
2023/01/24 03:39:58;;;;;;;34.33;22.55;;;3.50;99.90;;;;;;5072365;28;20941;-79
2023/01/24 03:42:27;;;;;;;20.10;13.70;;;3.50;99.90;;;;;;5088897;28;20459;-79
2023/01/24 03:44:53;;;;;;;16.60;12.60;;;3.40;99.90;;;;;;5072421;28;20452;-79
2023/01/24 03:47:19;;;;;;;14.77;11.10;;;3.50;99.90;;;;;;5093144;28;20400;-79
2023/01/24 03:52:28;;;;;;;16.65;12.25;;;3.40;99.90;;;;;;5084255;28;20429;-79
2023/01/24 03:54:59;;;;;;;18.83;13.20;;;3.50;99.90;;;;;;5076792;28;20510;-79
2023/01/24 03:57:27;;;;;;;18.25;12.98;;;3.40;99.90;;;;;;5096225;28;20411;-79
2023/01/24 03:59:52;;;;;;;20.92;13.65;;;3.40;99.90;;;;;;5105125;28;20401;-79
2023/01/24 04:02:18;;;;;;;21.60;15.10;;;3.40;99.90;;;;;;5096575;28;20427;-79
2023/01/24 04:07:30;;;;;;;20.90;14.82;;;3.40;99.90;;;;;;5107411;28;20419;-79
2023/01/24 04:09:57;;;;;;;21.00;14.47;;;3.50;99.90;;;;;;5106221;28;20412;-78
2023/01/24 04:12:23;;;;;;;22.90;15.48;;;3.50;99.90;;;;;;5107958;28;20404;-79
2023/01/24 04:14:49;;;;;;;22.58;14.35;;;3.50;99.90;;;;;;5089998;28;20425;-79
2023/01/24 04:17:14;;;;;;;19.33;14.05;;;3.40;99.90;;;;;;5099204;28;20408;-79
2023/01/24 04:19:40;;;;;;;20.90;14.33;;;3.40;99.90;;;;;;5089909;28;20403;-79
2023/01/24 04:22:05;;;;;;;18.83;13.88;;;3.40;99.90;;;;;;5108103;28;21474;-79
2023/01/24 04:24:31;;;;;;;18.67;13.93;;;3.40;99.90;;;;;;5106975;28;20408;-79
2023/01/24 04:26:56;;;;;;;19.23;13.40;;;3.50;99.90;;;;;;5107995;28;20504;-79
2023/01/24 04:29:22;;;;;;;20.87;14.50;;;3.50;99.90;;;;;;5102879;28;20409;-79
2023/01/24 04:31:48;;;;;;;20.20;14.97;;;3.50;99.90;;;;;;5100168;28;20913;-79
2023/01/24 04:34:13;;;;;;;20.98;15.27;;;3.50;99.90;;;;;;5090263;28;20410;-79
2023/01/24 04:36:39;;;;;;;20.77;14.70;;;3.40;99.90;;;;;;5098258;28;20433;-78
2023/01/24 04:39:04;;;;;;;20.63;15.30;;;3.40;99.90;;;;;;5103172;28;20417;-79
2023/01/24 04:41:30;;;;;;;21.60;16.17;;;3.40;99.90;;;;;;5106357;28;20443;-79
2023/01/24 04:43:56;;;;;;;21.75;15.30;;;3.40;99.90;;;;;;5103963;28;20403;-79
2023/01/24 04:46:21;;;;;;;22.70;16.63;;;3.40;99.90;;;;;;5106664;28;20459;-78
2023/01/24 04:48:47;;;;;;;25.00;18.33;;;3.40;99.90;;;;;;5099684;28;20968;-78
2023/01/24 04:51:12;;;;;;;26.27;19.33;;;3.40;99.90;;;;;;5098072;28;20461;-79
2023/01/24 04:53:39;;;;;;;26.73;19.13;;;3.40;99.90;;;;;;5089022;28;20402;-79
2023/01/24 04:56:06;;;;;;;25.85;19.25;;;3.40;99.90;;;;;;5088371;28;20814;-79
2023/01/24 04:58:32;;;;;;;26.03;19.10;;;3.40;99.90;;;;;;5087760;28;20426;-78
2023/01/24 05:00:58;;;;;;;25.90;19.70;;;3.40;99.90;;;;;;5087911;28;20414;-79
2023/01/24 05:03:24;;;;;;;24.33;18.10;;;3.40;99.90;;;;;;5087939;28;20441;-78
2023/01/24 05:05:51;;;;;;;24.50;17.75;;;3.40;99.90;;;;;;5088520;28;20398;-79
2023/01/24 05:08:17;;;;;;;24.95;17.45;;;3.40;99.90;;;;;;5087539;28;20398;-79
2023/01/24 05:10:43;;;;;;;24.40;18.08;;;3.40;99.90;;;;;;5087645;28;20410;-79
2023/01/24 05:13:09;;;;;;;24.88;18.30;;;3.40;99.90;;;;;;5103668;28;20419;-79
2023/01/24 05:15:35;;;;;;;24.63;17.90;;;3.40;99.90;;;;;;5106776;28;20884;-79
2023/01/24 05:18:01;;;;;;;22.42;16.17;;;3.40;99.90;;;;;;5104830;28;20802;-79
2023/01/24 05:20:27;;;;;;;21.50;15.60;;;3.40;99.90;;;;;;5104776;28;20411;-79
2023/01/24 05:22:55;;;;;;;21.73;15.43;;;3.40;99.90;;;;;;5092175;28;20416;-79
2023/01/24 05:25:21;;;;;;;20.05;15.25;;;3.40;99.90;;;;;;5076386;28;20479;-79
2023/01/24 05:27:47;;;;;;;18.38;14.45;;;3.40;99.90;;;;;;5075279;28;20625;-79
2023/01/24 05:30:12;;;;;;;20.17;14.93;;;3.40;99.90;;;;;;5100014;28;20406;-79
2023/01/24 05:32:38;;;;;;;21.67;15.60;;;3.40;99.90;;;;;;5073696;28;20444;-79
2023/01/24 05:35:04;;;;;;;22.75;16.70;;;3.40;99.90;;;;;;5086942;28;21185;-80
2023/01/24 05:37:30;;;;;;;22.23;15.97;;;3.40;99.90;;;;;;5087417;28;20401;-79
2023/01/24 05:39:56;;;;;;;18.37;13.93;;;3.40;99.90;;;;;;5079998;28;20420;-79
2023/01/24 05:42:21;;;;;;;18.38;13.95;;;3.40;99.90;;;;;;5063940;28;20402;-79
2023/01/24 05:44:47;;;;;;;20.50;14.90;;;3.40;99.90;;;;;;5106862;28;20408;-79
2023/01/24 05:47:12;;;;;;;20.92;14.93;;;3.30;99.90;;;;;;5106437;28;20400;-79
2023/01/24 05:49:38;;;;;;;20.57;14.77;;;3.30;99.90;;;;;;5106562;28;21191;-79
2023/01/24 05:52:04;;;;;;;18.27;14.00;;;3.30;99.90;;;;;;5092254;28;20398;-79
2023/01/24 05:54:29;;;;;;;20.95;14.57;;;3.30;99.90;;;;;;5089512;28;20411;-79
2023/01/24 05:56:55;;;;;;;20.43;14.67;;;3.30;99.90;;;;;;5092425;28;20400;-79
2023/01/24 05:59:20;;;;;;;19.52;14.13;;;3.30;99.90;;;;;;5080081;28;20434;-79
2023/01/24 06:01:46;;;;;;;21.67;15.13;;;3.30;99.90;;;;;;5099464;28;20463;-79
2023/01/24 06:04:12;;;;;;;20.17;14.83;;;3.30;99.90;;;;;;5086937;28;20405;-79
2023/01/24 06:06:37;;;;;;;19.65;14.15;;;3.30;99.90;;;;;;5088122;28;20507;-79
2023/01/24 06:09:03;;;;;;;20.02;14.55;;;3.30;99.90;;;;;;5086913;28;20406;-79
2023/01/24 06:11:29;;;;;;;20.63;15.52;;;3.30;99.90;;;;;;5103386;28;20499;-79
2023/01/24 06:13:55;;;;;;;21.33;15.95;;;3.30;99.90;;;;;;5102934;28;21103;-79
2023/01/24 06:16:24;;;;;;;22.88;16.42;;;3.30;99.90;;;;;;5075160;28;20402;-79
2023/01/24 06:18:51;;;;;;;20.75;14.30;;;3.30;99.90;;;;;;5086770;28;20838;-79
2023/01/24 06:21:38;;;;;;;22.45;15.38;;;3.30;99.90;;;;;;5086943;28;21170;-79
2023/01/24 06:24:04;;;;;;;19.75;14.52;;;3.30;99.90;;;;;;5086432;28;20410;-79
2023/01/24 06:26:31;;;;;;;21.15;15.48;;;3.30;99.90;;;;;;5086736;28;20463;-78
2023/01/24 06:28:57;;;;;;;19.75;15.10;;;3.30;99.90;;;;;;5068809;28;20405;-79
2023/01/24 06:31:49;;;;;;;22.45;16.23;;;3.30;99.90;;;;;;5080946;28;20411;-79
2023/01/24 06:34:34;;;;;;;22.83;16.48;;;3.30;99.90;;;;;;5108963;28;20416;-79
2023/01/24 06:37:20;;;;;;;23.40;16.80;;;3.30;99.90;;;;;;5109162;28;20400;-79
2023/01/24 06:39:51;;;;;;;24.15;16.48;;;3.30;99.90;;;;;;5105985;28;20432;-79
2023/01/24 06:42:18;;;;;;;22.23;16.55;;;3.30;99.90;;;;;;5090530;28;20417;-79
2023/01/24 06:44:44;;;;;;;22.67;16.60;;;3.30;99.90;;;;;;5089695;28;20418;-79
2023/01/24 06:47:11;;;;;;;24.08;16.50;;;3.20;99.90;;;;;;5073644;28;20821;-79
2023/01/24 06:49:38;;;;;;;21.83;15.55;;;3.20;99.90;;;;;;5073560;28;20532;-79
2023/01/24 06:52:04;;;;;;;23.88;16.55;;;3.20;99.90;;;;;;5090686;28;20402;-79
2023/01/24 06:54:29;;;;;;;22.30;15.25;;;3.20;99.90;;;;;;5090785;28;20402;-79
2023/01/24 06:56:55;;;;;;;19.98;14.65;;;3.20;99.90;;;;;;5090557;28;20406;-79
2023/01/24 06:59:22;;;;;;;21.23;15.00;;;3.20;99.90;;;;;;5089413;28;20437;-78
2023/01/24 07:01:49;;;;;;;21.85;15.02;;;3.20;99.90;;;;;;5076269;28;20416;-79
2023/01/24 07:04:14;;;;;;;21.35;14.93;;;3.20;99.90;;;;;;5073915;28;20404;-78
2023/01/24 07:06:40;;;;;;;22.85;15.30;;;3.20;99.90;;;;;;5085000;28;20403;-78
2023/01/24 07:09:06;;;;;;;20.52;14.63;;;3.20;99.90;;;;;;5078426;28;20399;-79
2023/01/24 07:11:32;;;;;;;20.00;14.23;;;3.20;99.90;;;;;;5082319;28;20426;-79
2023/01/24 07:13:57;;;;;;;20.43;14.43;;;3.10;99.90;;;;;;5084156;28;20413;-79
2023/01/24 07:16:23;;;;;;;18.63;13.70;;;3.20;99.90;;;;;;5085720;28;20574;-79
2023/01/24 07:18:49;;;;;;;20.48;14.73;;;3.10;99.90;;;;;;5088135;28;20791;-79
2023/01/24 07:21:15;;;;;;;17.88;12.88;;;3.10;99.90;;;;;;5103066;28;20927;-79
2023/01/24 07:23:46;;;;;;;19.25;13.73;;;3.20;99.90;;;;;;5083538;28;21023;-79
2023/01/24 07:26:12;;;;;;;17.23;13.15;;;3.10;99.90;;;;;;5090559;28;20444;-79
2023/01/24 07:28:39;;;;;;;17.10;13.27;;;3.20;99.90;;;;;;5089138;28;20883;-79
2023/01/24 07:31:04;;;;;;;18.33;13.10;;;3.20;99.90;;;;;;5087006;28;20422;-79
2023/01/24 07:33:30;;;;;;;18.77;12.90;;;3.10;99.90;;;;;;5084745;28;20410;-79
2023/01/24 07:35:56;;;;;;;19.70;13.90;;;3.10;99.90;;;;;;5070801;28;20409;-79
2023/01/24 07:38:21;;;;;;;17.60;13.07;;;3.10;99.90;;;;;;5088096;28;21015;-80
2023/01/24 07:40:47;;;;;;;17.87;12.40;;;3.20;99.90;;;;;;5059242;28;20510;-79
2023/01/24 07:43:13;;;;;;;17.83;12.45;;;3.10;99.90;;;;;;5072063;28;20420;-79
2023/01/24 07:45:39;;;;;;;17.65;12.45;;;3.10;99.90;;;;;;5071106;28;20942;-79
2023/01/24 07:48:09;;;;;;;15.57;11.35;;;3.10;99.90;;;;;;5097270;28;20906;-79
2023/01/24 07:50:35;;;;;;;15.27;11.30;;;3.10;99.90;;;;;;5102496;28;20424;-80
2023/01/24 07:53:01;;;;;;;14.75;11.57;;;3.10;99.90;;;;;;5078325;28;20410;-79
2023/01/24 07:55:27;;;;;;;16.63;12.32;;;3.10;99.90;;;;;;5091307;28;20772;-80
2023/01/24 07:58:01;;;;;;;16.37;12.27;;;3.10;99.90;;;;;;5073719;28;21235;-80
2023/01/24 08:00:27;;;;;;;17.50;12.70;;;3.10;99.90;;;;;;5070335;28;20446;-80
2023/01/24 08:02:53;;;;;;;19.50;14.05;;;3.20;99.90;;;;;;5098922;28;20420;-79
2023/01/24 08:05:18;;;;;;;19.73;13.93;;;3.10;99.90;;;;;;5075014;28;20485;-79
2023/01/24 08:07:44;;;;;;;20.57;14.97;;;3.10;99.90;;;;;;5092101;28;20772;-80
2023/01/24 08:10:10;;;;;;;20.87;15.30;;;3.10;99.90;;;;;;5087541;28;20418;-80
2023/01/24 08:12:36;;;;;;;21.80;15.90;;;3.10;99.90;;;;;;5087094;28;21457;-82
2023/01/24 08:15:02;;;;;;;20.98;15.35;;;3.10;99.90;;;;;;5088392;28;20406;-84
2023/01/24 08:17:27;;;;;;;21.27;14.25;;;3.10;99.90;;;;;;5085395;28;20414;-79
2023/01/24 08:19:53;;;;;;;19.57;14.60;;;3.10;99.90;;;;;;5085497;28;20417;-79
2023/01/24 08:22:18;;;;;;;16.37;12.10;;;3.10;99.90;;;;;;5089539;28;20532;-79
2023/01/24 08:24:44;;;;;;;16.95;12.75;;;3.10;99.90;;;;;;5086447;28;20512;-79
2023/01/24 08:27:10;;;;;;;17.40;12.73;;;3.10;99.90;;;;;;5087528;28;20413;-79
2023/01/24 08:29:36;;;;;;;18.77;12.73;;;3.10;99.90;;;;;;5087430;28;20422;-80
2023/01/24 08:32:01;;;;;;;17.42;12.93;;;3.10;99.90;;;;;;5087519;28;20409;-79
2023/01/24 08:34:27;;;;;;;16.87;12.67;;;3.10;99.90;;;;;;5087356;28;21222;-79
2023/01/24 08:36:52;;;;;;;17.88;12.35;;;3.10;99.90;;;;;;5095386;28;20427;-79
2023/01/24 08:39:18;;;;;;;17.85;13.25;;;3.10;99.90;;;;;;5081931;28;20507;-78
2023/01/24 08:41:45;;;;;;;18.47;13.00;;;3.10;99.90;;;;;;5095077;28;20400;-78
2023/01/24 08:44:12;;;;;;;20.93;15.13;;;3.10;99.90;;;;;;5090160;28;20465;-79
2023/01/24 08:46:38;;;;;;;21.67;15.17;;;3.10;99.90;;;;;;5092724;28;20858;-79
2023/01/24 08:49:04;;;;;;;20.77;14.50;;;3.10;99.90;;;;;;5086219;28;20497;-79
2023/01/24 08:51:29;;;;;;;19.50;14.20;;;3.10;99.90;;;;;;5082683;28;20423;-79
2023/01/24 08:53:55;;;;;;;16.80;12.80;;;3.20;99.90;;;;;;5084991;28;20533;-79
2023/01/24 08:56:21;;;;;;;18.13;12.60;;;3.10;99.90;;;;;;5086479;28;20430;-79
2023/01/24 08:58:46;;;;;;;21.77;12.98;;;3.20;99.90;;;;;;5082912;28;20511;-79
2023/01/24 09:01:12;;;;;;;18.65;12.98;;;3.20;99.90;;;;;;5079845;28;20418;-79
2023/01/24 09:03:38;;;;;;;18.88;13.30;;;3.10;99.90;;;;;;5057108;28;20954;-79
2023/01/24 09:06:04;;;;;;;18.27;13.47;;;3.20;99.90;;;;;;5076082;28;20535;-79
2023/01/24 09:08:30;;;;;;;20.40;14.25;;;3.20;99.90;;;;;;5080055;28;20477;-79
2023/01/24 09:11:00;;;;;;;21.10;15.23;;;3.20;99.90;;;;;;5092294;28;20447;-79
2023/01/24 09:13:26;;;;;;;22.10;15.90;;;3.20;99.90;;;;;;5067603;28;20418;-79
2023/01/24 09:15:51;;;;;;;24.33;17.13;;;3.20;99.90;;;;;;5086104;28;20402;-79
2023/01/24 09:18:17;;;;;;;21.10;15.70;;;3.20;99.90;;;;;;5085143;28;20800;-79
2023/01/24 09:20:43;;;;;;;24.05;16.13;;;3.20;99.90;;;;;;5069105;28;20792;-79
2023/01/24 09:23:12;;;;;;;22.15;15.80;;;3.20;99.90;;;;;;5083711;28;20421;-79
2023/01/24 09:25:38;;;;;;;21.55;15.18;;;3.20;99.90;;;;;;5085983;28;20512;-79
2023/01/24 09:28:05;;;;;;;21.30;15.73;;;3.20;99.90;;;;;;5087678;28;20806;-79
2023/01/24 09:30:31;;;;;;;21.92;15.63;;;3.30;99.90;;;;;;5086425;28;20488;-79
2023/01/24 09:32:56;;;;;;;21.40;15.90;;;3.30;99.90;;;;;;5086861;28;20437;-79
2023/01/24 09:35:22;;;;;;;21.77;15.70;;;3.30;99.90;;;;;;5087293;28;20825;-79
2023/01/24 09:37:50;;;;;;;21.10;15.98;;;3.30;99.90;;;;;;5086161;28;20436;-79
2023/01/24 09:40:34;;;;;;;21.83;15.82;;;3.30;99.90;;;;;;5068078;28;20414;-79
2023/01/24 09:43:22;;;;;;;22.20;16.23;;;3.30;99.90;;;;;;5086845;28;20430;-79
2023/01/24 09:46:15;;;;;;;24.80;18.23;;;3.30;99.90;;;;;;5086112;28;20426;-79
2023/01/24 09:48:41;;;;;;;24.30;17.43;;;3.30;99.90;;;;;;5087172;28;20430;-79
2023/01/24 09:51:15;;;;;;;22.80;16.80;;;3.40;99.90;;;;;;5088116;28;20413;-79
2023/01/24 09:53:44;;;;;;;20.40;16.15;;;3.40;99.90;;;;;;5068127;28;20449;-79
2023/01/24 09:56:34;;;;;;;20.50;16.13;;;3.40;99.90;;;;;;5088315;28;20498;-78
2023/01/24 09:59:12;;;;;;;21.25;15.95;;;3.40;99.90;;;;;;5067664;28;20928;-79
2023/01/24 10:01:40;;;;;;;20.95;16.60;;;3.40;99.90;;;;;;5086910;28;21124;-79
2023/01/24 10:04:20;;;;;;;22.92;18.30;;;3.40;99.90;;;;;;5083666;28;20430;-79
2023/01/24 10:06:58;;;;;;;26.27;20.40;;;3.40;99.90;;;;;;5074900;28;20796;-79
2023/01/24 10:09:47;;;;;;;27.67;22.00;;;3.40;99.90;;;;;;5076022;28;20517;-79
2023/01/24 10:12:20;;;;;;;23.57;17.90;;;3.50;99.90;;;;;;5091212;28;20414;-79
2023/01/24 10:14:54;;;;;;;26.02;18.65;;;3.40;99.90;;;;;;5090112;28;20422;-79
2023/01/24 10:17:56;;;;;;;23.80;18.20;;;3.50;99.90;;;;;;5092720;28;20446;-79
2023/01/24 10:20:28;;;;;;;22.45;17.67;;;3.50;99.90;;;;;;5089985;28;20432;-79
2023/01/24 10:23:06;;;;;;;22.85;18.15;;;3.50;99.90;;;;;;5091136;28;20398;-79
2023/01/24 10:25:51;;;;;;;21.02;16.60;;;3.50;99.90;;;;;;5093242;28;20459;-79
2023/01/24 10:28:40;;;;;;;20.17;16.23;;;3.50;99.90;;;;;;5083792;28;21014;-79
2023/01/24 10:31:25;;;;;;;20.80;16.43;;;3.40;99.90;;;;;;5092510;28;20813;-79
2023/01/24 10:33:57;;;;;;;20.80;16.80;;;3.50;99.90;;;;;;5091222;28;20409;-79
2023/01/24 10:36:48;;;;;;;20.80;16.33;;;3.40;99.90;;;;;;5093311;28;20477;-79
2023/01/24 10:39:14;;;;;;;20.50;16.00;;;3.40;99.90;;;;;;5091603;28;20438;-79
2023/01/24 10:41:39;;;;;;;20.17;15.80;;;3.50;99.90;;;;;;5090985;28;20390;-79
2023/01/24 10:44:19;;;;;;;19.80;16.10;;;3.50;99.90;;;;;;5094803;28;20483;-79
2023/01/24 10:47:02;;;;;;;20.48;16.85;;;3.50;99.90;;;;;;5091985;28;20445;-79
2023/01/24 10:49:40;;;;;;;23.05;18.30;;;3.50;99.90;;;;;;5095071;28;20410;-79
2023/01/24 10:52:12;;;;;;;22.95;19.17;;;3.50;99.90;;;;;;5092366;28;20490;-79
2023/01/24 10:54:53;;;;;;;22.70;18.23;;;3.50;99.90;;;;;;5095166;28;21122;-79
2023/01/24 10:57:24;;;;;;;23.90;18.80;;;3.50;99.90;;;;;;5094708;28;20547;-79
2023/01/24 10:59:50;;;;;;;22.38;18.48;;;3.50;99.90;;;;;;5095612;28;21129;-79
2023/01/24 11:02:25;;;;;;;21.52;17.38;;;3.50;99.90;;;;;;5093417;28;20760;-79
2023/01/24 11:05:03;;;;;;;25.25;19.48;;;3.50;99.90;;;;;;5090135;28;20419;-79
2023/01/24 11:07:31;;;;;;;24.55;19.15;;;3.50;99.90;;;;;;5086949;28;20412;-79
2023/01/24 11:10:00;;;;;;;24.23;18.75;;;3.50;99.90;;;;;;5081068;28;20417;-79
2023/01/24 11:12:27;;;;;;;23.17;17.77;;;3.50;99.90;;;;;;5077762;28;20538;-79
2023/01/24 11:14:53;;;;;;;24.75;17.92;;;3.50;99.90;;;;;;5091874;28;20398;-77
2023/01/24 11:17:41;;;;;;;25.52;19.80;;;3.50;99.90;;;;;;5072066;28;20421;-77
2023/01/24 11:20:28;;;;;;;23.17;18.02;;;3.50;99.90;;;;;;5071214;28;20417;-78
2023/01/24 11:23:14;;;;;;;23.00;18.52;;;3.50;99.90;;;;;;5085381;28;20417;-78
2023/01/24 11:25:56;;;;;;;23.30;18.08;;;3.50;99.90;;;;;;5090837;28;20398;-78
2023/01/24 11:28:30;;;;;;;22.60;17.70;;;3.60;99.90;;;;;;5084543;28;20891;-78
2023/01/24 11:31:04;;;;;;;24.35;18.40;;;3.50;99.90;;;;;;5089645;28;20806;-78
2023/01/24 11:33:29;;;;;;;21.75;18.25;;;3.50;99.90;;;;;;5088912;28;20489;-78
2023/01/24 11:36:04;;;;;;;23.30;18.77;;;3.50;99.90;;;;;;5088565;28;20493;-78
2023/01/24 11:38:37;;;;;;;21.83;17.65;;;3.50;99.90;;;;;;5090053;28;20503;-78
2023/01/24 11:41:36;;;;;;;22.70;18.15;;;3.50;99.90;;;;;;5089517;28;20438;-78
2023/01/24 11:44:27;;;;;;;22.90;18.23;;;3.50;99.90;;;;;;5079335;28;20425;-78
2023/01/24 11:47:07;;;;;;;23.42;17.85;;;3.60;99.90;;;;;;5088646;28;20476;-78
2023/01/24 11:49:58;;;;;;;22.63;17.52;;;3.60;99.90;;;;;;5089725;28;20525;-78
2023/01/24 11:52:40;;;;;;;22.80;18.08;;;3.60;99.90;;;;;;5085895;28;20456;-79
2023/01/24 11:55:20;;;;;;;24.38;18.83;;;3.60;99.90;;;;;;5079131;28;20481;-78
2023/01/24 11:58:19;;;;;;;22.80;18.05;;;3.60;99.90;;;;;;5088033;28;20418;-79
2023/01/24 12:00:55;;;;;;;24.15;18.88;;;3.60;99.90;;;;;;5064508;28;20450;-78
2023/01/24 12:03:56;;;;;;;24.95;18.95;;;3.60;99.90;;;;;;5080449;28;20489;-78
2023/01/24 12:06:22;;;;;;;24.30;18.85;;;3.60;99.90;;;;;;5074551;28;20406;-79
2023/01/24 12:08:53;;;;;;;24.15;18.65;;;3.60;99.90;;;;;;5086837;28;20417;-78
2023/01/24 12:11:41;;;;;;;25.00;19.37;;;3.60;99.90;;;;;;5067947;28;20447;-78
2023/01/24 12:14:15;;;;;;;22.33;17.67;;;3.60;99.90;;;;;;5086170;28;20426;-78
2023/01/24 12:16:59;;;;;;;22.02;17.52;;;3.70;99.90;;;;;;5085561;28;20454;-78
2023/01/24 12:19:44;;;;;;;25.25;18.17;;;3.70;99.90;;;;;;5085819;28;20532;-78
2023/01/24 12:22:17;;;;;;;24.65;18.63;;;3.70;99.90;;;;;;5085386;28;20426;-78
2023/01/24 12:24:47;;;;;;;22.20;17.10;;;3.70;99.90;;;;;;5088019;28;20428;-78
2023/01/24 12:27:17;;;;;;;22.98;18.10;;;3.70;99.90;;;;;;5085576;28;20541;-78
2023/01/24 12:29:55;;;;;;;23.05;17.75;;;3.70;99.90;;;;;;5087451;28;20505;-78
2023/01/24 12:32:46;;;;;;;27.45;18.92;;;3.70;99.90;;;;;;5071448;28;20503;-78
2023/01/24 12:35:38;;;;;;;24.33;18.58;;;3.70;99.90;;;;;;5077241;28;20979;-78
2023/01/24 12:38:11;;;;;;;23.90;18.33;;;3.70;99.90;;;;;;5068426;28;20908;-78
2023/01/24 12:40:55;;;;;;;25.02;18.75;;;3.70;99.90;;;;;;5066018;28;20432;-78
2023/01/24 12:43:26;;;;;;;23.43;17.70;;;3.60;99.90;;;;;;5086115;28;20469;-78
2023/01/24 12:46:17;;;;;;;24.20;18.08;;;3.70;99.90;;;;;;5079631;28;20482;-78
2023/01/24 12:48:58;;;;;;;23.73;18.58;;;3.60;99.90;;;;;;5085762;28;20449;-78
2023/01/24 12:51:27;;;;;;;25.02;19.08;;;3.70;99.90;;;;;;5090712;28;20805;-78
2023/01/24 12:54:10;;;;;;;27.13;19.77;;;3.70;99.90;;;;;;5086339;28;20417;-78
2023/01/24 12:57:17;;;;;;;28.02;20.92;;;3.70;99.90;;;;;;5090763;28;20426;-78
2023/01/24 12:59:42;;;;;;;24.45;18.83;;;3.70;99.90;;;;;;5088658;28;20439;-78
2023/01/24 13:02:26;;;;;;;25.90;19.23;;;3.70;99.90;;;;;;5085760;28;20429;-78
2023/01/24 13:05:15;;;;;;;26.55;19.42;;;3.70;99.90;;;;;;5084055;28;20426;-78
2023/01/24 13:08:22;;;;;;;26.88;20.20;;;3.70;99.90;;;;;;5071481;28;20824;-78
2023/01/24 13:11:10;;;;;;;28.70;20.70;;;3.70;99.90;;;;;;5084660;28;20485;-78
2023/01/24 13:13:57;;;;;;;26.08;19.85;;;3.60;99.90;;;;;;5099661;27;20822;-78
2023/01/24 13:16:40;;;;;;;26.77;19.67;;;3.60;99.90;;;;;;5086238;28;20826;-78
2023/01/24 13:19:20;;;;;;;25.23;19.77;;;3.70;99.90;;;;;;5087827;28;21019;-78
2023/01/24 13:21:55;;;;;;;27.40;19.97;;;3.70;99.90;;;;;;5086375;28;20437;-78
2023/01/24 13:24:50;;;;;;;26.63;20.05;;;3.70;99.90;;;;;;5087381;28;20426;-78
2023/01/24 13:27:25;;;;;;;26.88;19.38;;;3.70;99.90;;;;;;5086902;28;20436;-78
2023/01/24 13:30:12;;;;;;;25.58;19.35;;;3.60;99.90;;;;;;5087596;28;20425;-78